createdAt,value
2022-10-29T00:00:15.773Z,12.63
2022-10-29T00:02:18.854Z,14.67
2022-10-29T00:04:21.693Z,15.07
2022-10-29T00:06:25.913Z,12.87
2022-10-29T00:08:30.185Z,15.83
2022-10-29T00:10:33.203Z,12.97
2022-10-29T00:12:39.179Z,18.23
2022-10-29T00:14:42.051Z,21.73
2022-10-29T00:16:44.874Z,12.40
2022-10-29T00:18:48.020Z,14.43
2022-10-29T00:20:50.833Z,12.43
2022-10-29T00:22:56.028Z,17.90
2022-10-29T00:24:59.403Z,11.63
2022-10-29T00:27:03.808Z,10.97
2022-10-29T00:29:06.587Z,15.63
2022-10-29T00:31:12.438Z,24.33
2022-10-29T00:33:16.494Z,12.17
2022-10-29T00:35:19.376Z,12.03
2022-10-29T00:37:22.243Z,11.67
2022-10-29T00:39:26.398Z,11.13
2022-10-29T00:41:30.670Z,17.07
2022-10-29T00:43:36.202Z,16.50
2022-10-29T00:45:42.929Z,12.73
2022-10-29T00:47:47.015Z,15.20
2022-10-29T00:49:54.288Z,17.80
2022-10-29T00:51:57.603Z,14.30
2022-10-29T00:54:04.623Z,15.00
2022-10-29T00:56:09.155Z,15.50
2022-10-29T00:58:12.373Z,13.70
2022-10-29T01:00:16.278Z,16.50
2022-10-29T01:02:19.556Z,15.53
2022-10-29T01:04:23.107Z,12.97
2022-10-29T01:06:26.175Z,13.20
2022-10-29T01:08:28.964Z,15.53
2022-10-29T01:10:40.005Z,15.33
2022-10-29T01:13:03.555Z,13.23
2022-10-29T01:15:14.072Z,16.27
2022-10-29T01:17:39.042Z,11.67
2022-10-29T01:20:03.819Z,12.53
2022-10-29T01:22:12.609Z,8.07
2022-10-29T01:24:42.630Z,14.40
2022-10-29T01:27:07.757Z,11.10
2022-10-29T01:29:27.328Z,17.90
2022-10-29T01:31:36.018Z,19.87
2022-10-29T01:33:42.837Z,9.87
2022-10-29T01:35:52.494Z,15.23
2022-10-29T01:38:07.836Z,18.37
2022-10-29T01:40:18.610Z,10.47
2022-10-29T01:42:28.690Z,14.50
2022-10-29T01:44:36.501Z,17.30
2022-10-29T01:46:47.588Z,13.60
2022-10-29T01:48:55.095Z,21.83
2022-10-29T01:51:03.405Z,12.00
2022-10-29T01:53:07.641Z,13.53
2022-10-29T01:55:10.895Z,14.07
2022-10-29T01:57:31.655Z,10.10
2022-10-29T01:59:43.079Z,15.10
2022-10-29T02:02:00.194Z,14.20
2022-10-29T02:04:15.264Z,18.20
2022-10-29T02:06:27.874Z,14.77
2022-10-29T02:08:37.525Z,12.20
2022-10-29T02:10:47.637Z,16.60
2022-10-29T02:12:53.136Z,9.50
2022-10-29T02:14:59.894Z,14.57
2022-10-29T02:17:04.597Z,14.07
2022-10-29T02:19:07.609Z,19.27
2022-10-29T02:21:10.405Z,13.17
2022-10-29T02:23:19.633Z,9.70
2022-10-29T02:25:23.043Z,14.27
2022-10-29T02:27:25.946Z,17.37
2022-10-29T02:29:28.765Z,16.93
2022-10-29T02:31:31.550Z,13.43
2022-10-29T02:33:35.968Z,9.87
2022-10-29T02:35:38.723Z,9.63
2022-10-29T02:37:41.589Z,11.50
2022-10-29T02:39:44.362Z,14.43
2022-10-29T02:41:47.142Z,10.80
2022-10-29T02:43:49.948Z,19.43
2022-10-29T02:46:11.153Z,9.43
2022-10-29T02:48:16.393Z,12.57
2022-10-29T02:50:20.599Z,15.27
2022-10-29T02:52:23.433Z,11.70
2022-10-29T02:54:26.217Z,17.67
2022-10-29T02:56:29.078Z,10.80
2022-10-29T02:58:31.879Z,14.27
2022-10-29T03:00:34.748Z,13.17
2022-10-29T03:02:37.708Z,12.17
2022-10-29T03:04:41.527Z,14.53
2022-10-29T03:06:45.797Z,13.90
2022-10-29T03:08:49.920Z,13.80
2022-10-29T03:10:52.947Z,12.87
2022-10-29T03:12:58.986Z,11.57
2022-10-29T03:15:01.812Z,13.37
2022-10-29T03:17:04.849Z,9.57
2022-10-29T03:19:07.677Z,11.57
2022-10-29T03:21:10.562Z,14.40
2022-10-29T03:23:14.784Z,12.13
2022-10-29T03:25:17.741Z,12.53
2022-10-29T03:27:20.535Z,8.37
2022-10-29T03:29:23.358Z,12.97
2022-10-29T03:31:26.184Z,13.30
2022-10-29T03:33:29.102Z,10.00
2022-10-29T03:35:31.965Z,13.33
2022-10-29T03:37:34.964Z,12.70
2022-10-29T03:39:39.134Z,17.93
2022-10-29T03:41:42.045Z,13.77
2022-10-29T03:43:44.961Z,13.47
2022-10-29T03:45:51.973Z,9.93
2022-10-29T03:47:55.078Z,11.10
2022-10-29T03:49:58.202Z,18.13
2022-10-29T03:52:01.007Z,20.10
2022-10-29T03:54:03.878Z,12.40
2022-10-29T03:56:08.524Z,9.30
2022-10-29T03:58:11.329Z,13.80
2022-10-29T04:00:15.125Z,12.80
2022-10-29T04:02:18.137Z,12.33
2022-10-29T04:04:21.032Z,18.87
2022-10-29T04:06:23.850Z,16.73
2022-10-29T04:08:26.985Z,17.40
2022-10-29T04:10:31.215Z,13.77
2022-10-29T04:12:35.550Z,12.07
2022-10-29T04:14:44.425Z,14.47
2022-10-29T04:16:48.610Z,12.80
2022-10-29T04:18:51.707Z,20.40
2022-10-29T04:27:08.028Z,15.27
2022-10-29T04:30:27.999Z,13.57
2022-10-29T04:32:30.808Z,11.60
2022-10-29T04:34:33.664Z,12.67
2022-10-29T04:36:36.522Z,19.27
2022-10-29T04:38:39.720Z,15.67
2022-10-29T04:40:42.493Z,12.30
2022-10-29T04:42:45.325Z,12.97
2022-10-29T04:44:49.485Z,15.17
2022-10-29T04:46:52.337Z,14.83
2022-10-29T04:48:55.187Z,12.20
2022-10-29T04:50:58.000Z,10.87
2022-10-29T04:53:01.289Z,11.77
2022-10-29T04:55:04.338Z,12.00
2022-10-29T04:57:07.301Z,9.90
2022-10-29T04:59:10.108Z,9.37
2022-10-29T05:01:14.455Z,14.40
2022-10-29T05:03:17.409Z,21.27
2022-10-29T05:05:21.874Z,18.07
2022-10-29T05:07:24.875Z,11.77
2022-10-29T05:09:27.730Z,14.67
2022-10-29T05:11:30.568Z,12.73
2022-10-29T05:13:33.848Z,17.83
2022-10-29T05:15:36.977Z,20.17
2022-10-29T05:17:41.148Z,31.53
2022-10-29T05:19:43.945Z,27.77
2022-10-29T05:21:46.733Z,25.00
2022-10-29T05:23:49.578Z,17.63
2022-10-29T05:25:52.727Z,14.83
2022-10-29T05:28:03.621Z,18.57
2022-10-29T05:30:08.032Z,22.73
2022-10-29T05:32:10.867Z,20.77
2022-10-29T05:34:15.026Z,21.13
2022-10-29T05:36:17.961Z,18.53
2022-10-29T05:38:20.991Z,17.40
2022-10-29T05:40:25.001Z,19.03
2022-10-29T05:42:27.788Z,12.57
2022-10-29T05:44:30.603Z,17.10
2022-10-29T05:46:33.556Z,14.30
2022-10-29T05:48:36.550Z,16.60
2022-10-29T05:50:40.883Z,19.73
2022-10-29T05:52:43.733Z,15.57
2022-10-29T05:54:46.508Z,14.60
2022-10-29T05:56:49.854Z,16.47
2022-10-29T05:58:52.851Z,15.67
2022-10-29T06:00:55.689Z,15.07
2022-10-29T06:02:58.824Z,13.80
2022-10-29T06:05:01.783Z,16.27
2022-10-29T06:07:06.122Z,29.30
2022-10-29T06:09:09.404Z,16.93
2022-10-29T06:11:12.285Z,18.77
2022-10-29T06:13:17.913Z,18.13
2022-10-29T06:15:21.398Z,23.10
2022-10-29T06:17:24.248Z,16.20
2022-10-29T06:19:27.067Z,20.50
2022-10-29T06:21:29.934Z,12.73
2022-10-29T06:23:34.122Z,15.67
2022-10-29T06:25:37.113Z,14.70
2022-10-29T06:27:39.905Z,15.53
2022-10-29T06:29:42.691Z,15.87
2022-10-29T06:31:45.533Z,15.67
2022-10-29T06:33:48.396Z,15.83
2022-10-29T06:35:51.395Z,19.30
2022-10-29T06:37:54.589Z,17.57
2022-10-29T06:39:59.112Z,17.80
2022-10-29T06:42:01.932Z,21.00
2022-10-29T06:44:04.980Z,17.10
2022-10-29T06:46:08.449Z,17.33
2022-10-29T06:48:14.584Z,15.73
2022-10-29T06:50:20.833Z,16.77
2022-10-29T06:52:23.622Z,17.40
2022-10-29T06:54:26.474Z,19.50
2022-10-29T06:56:30.647Z,17.00
2022-10-29T06:58:33.517Z,17.10
2022-10-29T07:00:36.587Z,18.10
2022-10-29T07:02:39.502Z,15.40
2022-10-29T07:04:42.527Z,14.47
2022-10-29T07:06:45.376Z,24.33
2022-10-29T07:08:48.192Z,15.37
2022-10-29T07:10:52.470Z,15.60
2022-10-29T07:12:57.064Z,17.93
2022-10-29T07:14:59.831Z,25.80
2022-10-29T07:17:02.729Z,21.70
2022-10-29T07:19:06.453Z,19.33
2022-10-29T07:21:09.691Z,20.70
2022-10-29T07:23:13.448Z,19.80
2022-10-29T07:25:16.588Z,14.80
2022-10-29T07:27:19.486Z,13.90
2022-10-29T07:29:23.705Z,17.07
2022-10-29T07:31:26.646Z,15.30
2022-10-29T07:33:30.830Z,13.93
2022-10-29T07:35:34.739Z,22.57
2022-10-29T07:37:37.595Z,17.30
2022-10-29T07:39:40.405Z,17.70
2022-10-29T07:41:43.214Z,16.30
2022-10-29T07:43:46.037Z,15.00
2022-10-29T07:45:51.319Z,16.57
2022-10-29T07:48:02.801Z,15.60
2022-10-29T07:50:06.757Z,16.83
2022-10-29T07:52:10.456Z,15.47
2022-10-29T07:54:14.811Z,18.20
2022-10-29T07:56:17.820Z,20.90
2022-10-29T07:58:20.675Z,18.20
2022-10-29T08:00:23.606Z,19.43
2022-10-29T08:02:28.285Z,18.47
2022-10-29T08:04:31.121Z,15.53
2022-10-29T08:06:34.122Z,12.43
2022-10-29T08:08:37.330Z,20.00
2022-10-29T08:10:40.178Z,17.23
2022-10-29T08:12:49.862Z,16.10
2022-10-29T08:14:52.694Z,20.57
2022-10-29T08:16:55.553Z,20.10
2022-10-29T08:18:59.737Z,19.53
2022-10-29T08:21:04.916Z,19.47
2022-10-29T08:23:07.672Z,19.23
2022-10-29T08:25:11.107Z,21.93
2022-10-29T08:27:13.944Z,22.53
2022-10-29T08:29:16.760Z,17.53
2022-10-29T08:31:19.980Z,17.30
2022-10-29T08:33:22.826Z,14.37
2022-10-29T08:35:27.238Z,15.93
2022-10-29T08:37:30.093Z,18.00
2022-10-29T08:39:32.873Z,13.77
2022-10-29T08:41:42.876Z,17.50
2022-10-29T08:44:17.145Z,19.70
2022-10-29T08:46:25.675Z,16.07
2022-10-29T08:48:40.300Z,17.27
2022-10-29T08:50:48.167Z,19.73
2022-10-29T08:52:58.784Z,18.50
2022-10-29T08:55:13.677Z,18.23
2022-10-29T08:57:19.148Z,14.87
2022-10-29T08:59:23.667Z,16.43
2022-10-29T09:01:26.705Z,11.33
2022-10-29T09:03:30.442Z,15.93
2022-10-29T09:05:41.649Z,12.57
2022-10-29T09:08:01.198Z,17.37
2022-10-29T09:10:12.226Z,20.60
2022-10-29T09:12:36.447Z,14.77
2022-10-29T09:14:50.389Z,19.00
2022-10-29T09:16:59.125Z,14.67
2022-10-29T09:19:16.616Z,14.90
2022-10-29T09:21:30.429Z,11.80
2022-10-29T09:23:50.274Z,17.43
2022-10-29T09:26:00.056Z,11.13
2022-10-29T09:28:17.819Z,16.97
2022-10-29T09:30:21.808Z,11.43
2022-10-29T09:32:30.728Z,11.67
2022-10-29T09:34:41.092Z,15.47
2022-10-29T09:36:45.144Z,14.47
2022-10-29T09:38:56.036Z,13.10
2022-10-29T09:41:00.925Z,13.93
2022-10-29T09:43:14.307Z,17.03
2022-10-29T09:45:22.338Z,16.70
2022-10-29T09:47:37.263Z,18.60
2022-10-29T09:49:55.369Z,16.80
2022-10-29T09:52:02.281Z,13.23
2022-10-29T09:54:06.900Z,13.53
2022-10-29T09:56:10.488Z,15.83
2022-10-29T09:58:39.237Z,17.57
2022-10-29T10:00:42.221Z,19.17
2022-10-29T10:02:48.896Z,19.00
2022-10-29T10:04:56.861Z,17.23
2022-10-29T10:07:08.124Z,17.83
2022-10-29T10:09:12.309Z,13.57
2022-10-29T10:11:20.923Z,13.57
2022-10-29T10:13:27.418Z,15.73
2022-10-29T10:15:33.662Z,16.30
2022-10-29T10:17:57.215Z,13.60
2022-10-29T10:20:00.226Z,12.90
2022-10-29T10:22:04.888Z,14.47
2022-10-29T10:24:33.526Z,12.70
2022-10-29T10:26:43.132Z,12.30
2022-10-29T10:28:46.081Z,10.97
2022-10-29T10:31:08.788Z,12.37
2022-10-29T10:33:25.808Z,17.17
2022-10-29T10:35:31.705Z,15.30
2022-10-29T10:37:35.161Z,13.30
2022-10-29T10:39:40.956Z,14.77
2022-10-29T10:41:44.395Z,15.27
2022-10-29T10:43:47.897Z,12.13
2022-10-29T10:45:57.733Z,12.03
2022-10-29T10:48:02.459Z,12.47
2022-10-29T10:50:12.429Z,15.10
2022-10-29T10:52:19.262Z,15.27
2022-10-29T10:54:30.793Z,19.73
2022-10-29T10:56:53.379Z,16.33
2022-10-29T10:59:07.613Z,19.07
2022-10-29T11:01:14.631Z,12.53
2022-10-29T11:05:34.642Z,14.83
2022-10-29T11:07:43.250Z,15.23
2022-10-29T11:09:49.544Z,13.73
2022-10-29T11:11:59.660Z,17.63
2022-10-29T11:14:07.332Z,13.60
2022-10-29T11:16:17.142Z,12.90
2022-10-29T11:18:24.246Z,12.93
2022-10-29T11:20:29.736Z,17.93
2022-10-29T11:22:39.168Z,16.17
2022-10-29T11:24:49.891Z,14.40
2022-10-29T11:26:56.983Z,13.53
2022-10-29T11:29:12.815Z,20.20
2022-10-29T11:31:24.791Z,11.93
2022-10-29T11:33:38.367Z,10.57
2022-10-29T11:35:46.405Z,11.00
2022-10-29T11:37:57.400Z,13.87
2022-10-29T11:40:04.983Z,23.43
2022-10-29T11:42:10.851Z,13.10
2022-10-29T11:44:15.529Z,21.73
2022-10-29T11:46:30.874Z,16.03
2022-10-29T11:48:45.407Z,15.73
2022-10-29T11:50:57.052Z,17.57
2022-10-29T11:53:12.025Z,16.13
2022-10-29T11:55:27.529Z,19.27
2022-10-29T11:57:39.072Z,11.90
2022-10-29T11:59:55.226Z,13.03
2022-10-29T12:02:06.288Z,16.03
2022-10-29T12:04:30.067Z,16.70
2022-10-29T12:06:40.143Z,14.53
2022-10-29T12:09:01.116Z,16.60
2022-10-29T12:11:11.285Z,13.67
2022-10-29T12:13:28.923Z,13.40
2022-10-29T12:15:37.910Z,15.83
2022-10-29T12:17:47.930Z,12.17
2022-10-29T12:19:56.808Z,14.87
2022-10-29T12:22:07.799Z,11.50
2022-10-29T12:24:37.449Z,14.87
2022-10-29T12:26:45.477Z,15.73
2022-10-29T12:28:55.933Z,16.60
2022-10-29T12:31:14.986Z,11.60
2022-10-29T12:33:24.675Z,10.97
2022-10-29T12:35:34.715Z,9.27
2022-10-29T12:37:45.239Z,17.50
2022-10-29T12:39:51.341Z,13.57
2022-10-29T12:41:58.992Z,14.83
2022-10-29T12:44:10.875Z,12.03
2022-10-29T12:46:23.127Z,15.80
2022-10-29T12:48:35.620Z,17.83
2022-10-29T12:50:51.644Z,13.30
2022-10-29T12:53:02.812Z,10.77
2022-10-29T12:55:08.653Z,13.07
2022-10-29T12:57:28.729Z,16.77
2022-10-29T12:59:35.660Z,14.73
2022-10-29T13:04:26.965Z,14.23
2022-10-29T13:06:56.946Z,15.50
2022-10-29T13:09:12.044Z,13.13
2022-10-29T13:11:23.297Z,13.23
2022-10-29T13:13:43.593Z,8.70
2022-10-29T13:15:51.572Z,11.87
2022-10-29T13:17:57.230Z,14.93
2022-10-29T13:20:02.478Z,20.13
2022-10-29T13:22:28.819Z,11.90
2022-10-29T13:24:32.573Z,16.20
2022-10-29T13:26:57.318Z,15.37
2022-10-29T13:29:00.111Z,13.00
2022-10-29T13:31:36.038Z,12.00
2022-10-29T13:33:52.499Z,14.37
2022-10-29T13:35:56.782Z,16.20
2022-10-29T13:38:13.614Z,15.97
2022-10-29T13:40:42.543Z,17.47
2022-10-29T13:42:45.931Z,15.13
2022-10-29T13:44:49.685Z,12.60
2022-10-29T13:46:57.182Z,14.37
2022-10-29T13:49:06.582Z,12.27
2022-10-29T13:51:15.341Z,9.33
2022-10-29T13:53:24.173Z,16.37
2022-10-29T13:55:27.984Z,19.67
2022-10-29T13:57:35.307Z,14.43
2022-10-29T13:59:42.163Z,16.13
2022-10-29T14:01:59.809Z,11.43
2022-10-29T14:04:14.735Z,14.30
2022-10-29T14:06:21.650Z,14.95
2022-10-29T14:08:31.630Z,14.50
2022-10-29T14:10:43.446Z,20.13
2022-10-29T14:12:48.307Z,14.47
2022-10-29T14:14:58.255Z,15.43
2022-10-29T14:17:12.385Z,13.73
2022-10-29T14:19:22.046Z,15.65
2022-10-29T14:21:27.306Z,11.40
2022-10-29T14:23:31.675Z,12.33
2022-10-29T14:25:36.796Z,16.63
2022-10-29T14:27:39.741Z,14.17
2022-10-29T14:29:42.903Z,9.70
2022-10-29T14:31:45.787Z,13.40
2022-10-29T14:33:55.360Z,11.43
2022-10-29T14:36:08.597Z,12.80
2022-10-29T14:38:14.428Z,18.40
2022-10-29T14:40:21.109Z,16.20
2022-10-29T14:42:28.673Z,16.77
2022-10-29T14:44:33.504Z,15.57
2022-10-29T14:46:38.545Z,23.83
2022-10-29T14:48:49.915Z,17.30
2022-10-29T14:50:56.490Z,17.03
2022-10-29T14:53:03.683Z,13.37
2022-10-29T14:55:09.432Z,17.30
2022-10-29T14:57:15.567Z,18.33
2022-10-29T14:59:25.059Z,16.60
2022-10-29T15:01:31.687Z,16.40
2022-10-29T15:03:36.127Z,13.47
2022-10-29T15:05:39.229Z,13.00
2022-10-29T15:07:42.394Z,14.87
2022-10-29T15:09:48.215Z,13.73
2022-10-29T15:12:01.264Z,20.30
2022-10-29T15:14:05.419Z,19.10
2022-10-29T15:16:11.220Z,13.67
2022-10-29T15:18:19.155Z,16.37
2022-10-29T15:20:25.032Z,19.30
2022-10-29T15:22:33.563Z,15.17
2022-10-29T15:24:37.094Z,12.47
2022-10-29T15:26:49.987Z,16.10
2022-10-29T15:28:55.595Z,17.13
2022-10-29T15:31:02.265Z,15.20
2022-10-29T15:33:08.342Z,16.23
2022-10-29T15:35:12.029Z,14.43
2022-10-29T15:37:22.556Z,16.20
2022-10-29T15:39:27.722Z,14.53
2022-10-29T15:41:35.578Z,18.60
2022-10-29T15:43:52.281Z,15.73
2022-10-29T15:45:58.083Z,17.57
2022-10-29T15:48:30.297Z,13.17
2022-10-29T15:50:41.585Z,14.53
2022-10-29T15:52:47.993Z,16.97
2022-10-29T15:54:51.126Z,20.60
2022-10-29T15:56:54.181Z,13.40
2022-10-29T15:59:00.506Z,20.87
2022-10-29T16:01:03.424Z,16.53
2022-10-29T16:03:14.444Z,16.40
2022-10-29T16:05:18.683Z,19.80
2022-10-29T16:07:21.724Z,15.43
2022-10-29T16:09:24.562Z,17.90
2022-10-29T16:11:27.995Z,20.00
2022-10-29T16:13:31.855Z,21.13
2022-10-29T16:15:38.779Z,24.10
2022-10-29T16:17:44.577Z,16.33
2022-10-29T16:19:47.428Z,16.53
2022-10-29T16:21:50.221Z,15.60
2022-10-29T16:23:53.470Z,17.90
2022-10-29T16:25:56.405Z,19.63
2022-10-29T16:27:59.632Z,14.87
2022-10-29T16:30:02.826Z,17.10
2022-10-29T16:32:07.358Z,17.40
2022-10-29T16:34:13.625Z,16.07
2022-10-29T16:36:16.617Z,17.47
2022-10-29T16:38:19.468Z,22.10
2022-10-29T16:40:24.613Z,22.90
2022-10-29T16:42:32.960Z,18.50
2022-10-29T16:44:35.759Z,17.77
2022-10-29T16:46:38.712Z,18.90
2022-10-29T16:48:43.394Z,20.53
2022-10-29T16:50:46.192Z,15.33
2022-10-29T16:52:49.599Z,13.13
2022-10-29T16:54:52.407Z,19.90
2022-10-29T16:56:57.887Z,23.90
2022-10-29T16:59:02.070Z,17.97
2022-10-29T17:01:06.279Z,26.40
2022-10-29T17:03:11.775Z,16.67
2022-10-29T17:05:16.797Z,24.20
2022-10-29T17:07:19.848Z,20.57
2022-10-29T17:09:25.587Z,24.70
2022-10-29T17:11:28.971Z,22.13
2022-10-29T17:13:31.821Z,21.93
2022-10-29T17:15:34.852Z,26.00
2022-10-29T17:17:39.933Z,27.97
2022-10-29T17:19:45.234Z,31.30
2022-10-29T17:21:49.626Z,23.97
2022-10-29T17:23:52.525Z,21.47
2022-10-29T17:25:56.365Z,27.03
2022-10-29T17:28:00.020Z,24.87
2022-10-29T17:30:03.063Z,19.43
2022-10-29T17:32:07.640Z,22.63
2022-10-29T17:34:10.474Z,30.57
2022-10-29T17:36:15.655Z,25.60
2022-10-29T17:38:19.861Z,26.07
2022-10-29T17:40:24.046Z,24.03
2022-10-29T17:42:27.371Z,27.47
2022-10-29T17:44:32.014Z,22.10
2022-10-29T17:46:34.846Z,24.43
2022-10-29T17:48:38.854Z,26.30
2022-10-29T17:50:41.694Z,26.33
2022-10-29T17:52:44.576Z,23.97
2022-10-29T17:54:48.749Z,31.67
2022-10-29T17:56:52.173Z,35.13
2022-10-29T17:58:55.019Z,35.30
2022-10-29T18:01:04.788Z,20.37
2022-10-29T18:03:07.712Z,21.00
2022-10-29T18:05:10.780Z,25.17
2022-10-29T18:07:14.070Z,25.20
2022-10-29T18:09:20.222Z,22.60
2022-10-29T18:11:26.165Z,21.67
2022-10-29T18:13:32.614Z,31.30
2022-10-29T18:15:35.480Z,25.03
2022-10-29T18:17:40.298Z,24.73
2022-10-29T18:19:43.133Z,31.43
2022-10-29T18:21:45.991Z,27.17
2022-10-29T18:23:49.042Z,93.13
2022-10-29T18:26:02.722Z,36.77
2022-10-29T18:28:06.993Z,23.90
2022-10-29T18:30:10.894Z,20.77
2022-10-29T18:32:13.778Z,24.73
2022-10-29T18:34:17.031Z,25.33
2022-10-29T18:36:20.157Z,28.57
2022-10-29T18:38:26.973Z,28.00
2022-10-29T18:40:33.752Z,33.43
2022-10-29T18:42:36.921Z,27.77
2022-10-29T18:44:41.131Z,25.77
2022-10-29T18:46:43.988Z,34.80
2022-10-29T18:48:48.351Z,23.80
2022-10-29T18:50:51.564Z,23.53
2022-10-29T18:52:54.687Z,19.13
2022-10-29T18:54:57.804Z,28.33
2022-10-29T18:57:00.682Z,48.60
2022-10-29T18:59:03.553Z,36.27
2022-10-29T19:01:09.877Z,31.60
2022-10-29T19:03:13.146Z,37.17
2022-10-29T19:05:16.257Z,28.10
2022-10-29T19:07:19.258Z,25.17
2022-10-29T19:09:22.479Z,27.33
2022-10-29T19:11:26.628Z,23.47
2022-10-29T19:13:29.918Z,31.27
2022-10-29T19:15:34.461Z,25.80
2022-10-29T19:17:38.724Z,28.97
2022-10-29T19:19:41.597Z,26.33
2022-10-29T19:21:44.454Z,21.30
2022-10-29T19:23:47.493Z,23.57
2022-10-29T19:25:50.417Z,24.93
2022-10-29T19:27:53.317Z,21.30
2022-10-29T19:29:56.164Z,17.67
2022-10-29T19:31:58.999Z,24.43
2022-10-29T19:34:06.012Z,16.87
2022-10-29T19:36:10.438Z,21.07
2022-10-29T19:38:13.266Z,20.73
2022-10-29T19:40:16.218Z,18.40
2022-10-29T19:42:19.075Z,20.57
2022-10-29T19:44:21.907Z,22.70
2022-10-29T19:46:24.928Z,26.77
2022-10-29T19:48:27.949Z,30.40
2022-10-29T19:50:32.115Z,35.27
2022-10-29T19:52:35.151Z,39.30
2022-10-29T19:54:38.041Z,37.93
2022-10-29T19:56:40.929Z,30.07
2022-10-29T19:58:43.853Z,28.67
2022-10-29T20:00:46.951Z,30.60
2022-10-29T20:02:49.954Z,27.17
2022-10-29T20:04:52.869Z,17.30
2022-10-29T20:06:57.090Z,20.87
2022-10-29T20:09:00.371Z,22.43
2022-10-29T20:11:03.223Z,21.63
2022-10-29T20:13:06.433Z,24.03
2022-10-29T20:15:09.695Z,26.83
2022-10-29T20:17:12.569Z,19.33
2022-10-29T20:19:15.519Z,17.50
2022-10-29T20:21:18.820Z,21.50
2022-10-29T20:23:23.061Z,14.97
2022-10-29T20:25:26.267Z,18.57
2022-10-29T20:27:29.186Z,19.97
2022-10-29T20:29:32.193Z,24.40
2022-10-29T20:31:40.066Z,30.63
2022-10-29T20:33:44.322Z,27.13
2022-10-29T20:35:47.218Z,29.30
2022-10-29T20:37:50.052Z,25.23
2022-10-29T20:39:54.363Z,21.70
2022-10-29T20:41:57.286Z,26.30
2022-10-29T20:44:02.144Z,25.20
2022-10-29T20:46:05.445Z,13.83
2022-10-29T20:48:08.333Z,21.27
2022-10-29T20:50:11.221Z,21.33
2022-10-29T20:52:14.153Z,19.57
2022-10-29T20:54:17.042Z,20.80
2022-10-29T20:56:22.082Z,21.80
2022-10-29T20:58:24.985Z,17.43
2022-10-29T21:00:27.874Z,15.80
2022-10-29T21:02:30.832Z,14.70
2022-10-29T21:04:33.710Z,16.07
2022-10-29T21:06:36.759Z,12.63
2022-10-29T21:08:40.010Z,17.93
2022-10-29T21:10:42.909Z,12.70
2022-10-29T21:12:47.132Z,14.50
2022-10-29T21:14:50.014Z,17.03
2022-10-29T21:16:52.831Z,19.50
2022-10-29T21:18:57.623Z,19.77
2022-10-29T21:21:04.067Z,17.87
2022-10-29T21:23:06.964Z,14.50
2022-10-29T21:25:10.780Z,15.43
2022-10-29T21:27:13.746Z,26.50
2022-10-29T21:29:17.969Z,19.00
2022-10-29T21:31:22.390Z,35.80
2022-10-29T21:33:25.350Z,28.13
2022-10-29T21:35:28.151Z,20.23
2022-10-29T21:37:30.973Z,15.90
2022-10-29T21:39:34.081Z,21.03
2022-10-29T21:41:36.985Z,19.03
2022-10-29T21:43:40.303Z,28.53
2022-10-29T21:45:45.364Z,21.10
2022-10-29T21:47:49.635Z,19.00
2022-10-29T21:49:52.516Z,17.87
2022-10-29T21:51:55.405Z,15.90
2022-10-29T21:53:58.404Z,10.83
2022-10-29T21:56:02.650Z,12.30
2022-10-29T21:58:05.631Z,15.20
2022-10-29T22:00:11.907Z,10.23
2022-10-29T22:02:16.283Z,10.77
2022-10-29T22:04:19.365Z,16.67
2022-10-29T22:06:23.909Z,12.70
2022-10-29T22:08:26.814Z,13.40
2022-10-29T22:10:29.691Z,11.13
2022-10-29T22:12:32.597Z,13.50
2022-10-29T22:14:35.451Z,12.90
2022-10-29T22:16:38.944Z,13.03
2022-10-29T22:18:43.566Z,22.43
2022-10-29T22:20:46.434Z,17.10
2022-10-29T22:22:49.376Z,20.73
2022-10-29T22:24:52.353Z,19.67
2022-10-29T22:26:55.318Z,14.30
2022-10-29T22:28:58.353Z,12.40
2022-10-29T22:31:02.931Z,14.80
2022-10-29T22:33:06.049Z,18.53
2022-10-29T22:35:10.866Z,16.23
2022-10-29T22:37:13.800Z,12.43
2022-10-29T22:39:16.837Z,13.00
2022-10-29T22:41:19.831Z,17.80
2022-10-29T22:43:22.731Z,10.40
2022-10-29T22:45:25.789Z,11.00
2022-10-29T22:47:28.714Z,10.20
2022-10-29T22:49:31.631Z,15.47
2022-10-29T22:51:36.560Z,13.30
2022-10-29T22:53:39.450Z,14.63
2022-10-29T22:55:42.325Z,14.50
2022-10-29T22:57:45.147Z,21.00
2022-10-29T22:59:48.171Z,15.53
2022-10-29T23:01:51.299Z,14.27
2022-10-29T23:03:54.489Z,15.93
2022-10-29T23:05:58.300Z,14.07
2022-10-29T23:08:02.564Z,14.13
2022-10-29T23:10:06.154Z,14.03
2022-10-29T23:12:09.059Z,15.53
2022-10-29T23:14:11.988Z,11.77
2022-10-29T23:16:15.175Z,13.20
2022-10-29T23:18:18.077Z,10.93
2022-10-29T23:20:20.898Z,16.23
2022-10-29T23:22:26.519Z,11.63
2022-10-29T23:24:31.989Z,11.20
2022-10-29T23:26:34.837Z,13.27
2022-10-29T23:28:39.500Z,13.80
2022-10-29T23:30:42.377Z,13.20
2022-10-29T23:32:45.285Z,13.30
2022-10-29T23:34:48.219Z,15.23
2022-10-29T23:38:57.860Z,12.73
2022-10-29T23:41:02.683Z,17.20
2022-10-29T23:43:05.584Z,12.80
2022-10-29T23:45:09.831Z,15.40
2022-10-29T23:47:12.733Z,17.17
2022-10-29T23:49:15.697Z,11.87
2022-10-29T23:51:19.259Z,13.57
2022-10-29T23:53:22.147Z,18.07
2022-10-29T23:55:25.092Z,13.00
2022-10-29T23:57:29.407Z,15.20
2022-10-29T23:59:32.313Z,11.20
